sensor_id;sensor_type;location;lat;lon;timestamp;P1;durP1;ratioP1;P2;durP2;ratioP2
60306;SDS011;46155;52.364;6.580;2024-02-23T04:02:54;15.93;;;12.07;;
60306;SDS011;46155;52.364;6.580;2024-02-23T04:05:19;13.63;;;12.20;;
60306;SDS011;46155;52.364;6.580;2024-02-23T04:07:45;14.73;;;11.53;;
60306;SDS011;46155;52.364;6.580;2024-02-23T04:10:10;12.30;;;11.37;;
60306;SDS011;46155;52.364;6.580;2024-02-23T04:15:26;15.40;;;11.20;;
60306;SDS011;46155;52.364;6.580;2024-02-23T04:17:52;12.60;;;11.27;;
60306;SDS011;46155;52.364;6.580;2024-02-23T04:20:17;12.33;;;11.43;;
60306;SDS011;46155;52.364;6.580;2024-02-23T04:22:42;10.33;;;9.63;;
60306;SDS011;46155;52.364;6.580;2024-02-23T04:25:08;13.50;;;12.10;;
60306;SDS011;46155;52.364;6.580;2024-02-23T04:27:33;11.63;;;10.80;;
60306;SDS011;46155;52.364;6.580;2024-02-23T04:29:58;12.07;;;10.93;;
60306;SDS011;46155;52.364;6.580;2024-02-23T04:32:24;11.37;;;10.37;;
60306;SDS011;46155;52.364;6.580;2024-02-23T04:34:49;15.77;;;9.50;;
60306;SDS011;46155;52.364;6.580;2024-02-23T04:37:14;10.97;;;9.07;;
60306;SDS011;46155;52.364;6.580;2024-02-23T04:39:40;15.03;;;10.00;;
60306;SDS011;46155;52.364;6.580;2024-02-23T04:42:06;8.93;;;7.93;;
60306;SDS011;46155;52.364;6.580;2024-02-23T04:44:33;10.07;;;9.37;;
60306;SDS011;46155;52.364;6.580;2024-02-23T04:46:59;10.70;;;8.27;;
60306;SDS011;46155;52.364;6.580;2024-02-23T04:49:24;12.40;;;9.00;;
60306;SDS011;46155;52.364;6.580;2024-02-23T04:51:50;12.23;;;8.23;;
60306;SDS011;46155;52.364;6.580;2024-02-23T04:54:15;8.73;;;7.73;;
60306;SDS011;46155;52.364;6.580;2024-02-23T04:56:40;11.53;;;10.23;;
60306;SDS011;46155;52.364;6.580;2024-02-23T04:59:05;10.10;;;7.87;;
60306;SDS011;46155;52.364;6.580;2024-02-23T05:01:34;9.60;;;7.63;;
60306;SDS011;46155;52.364;6.580;2024-02-23T05:04:01;12.97;;;8.80;;
60306;SDS011;46155;52.364;6.580;2024-02-23T05:06:26;11.03;;;8.23;;
60306;SDS011;46155;52.364;6.580;2024-02-23T05:08:52;20.20;;;9.10;;
60306;SDS011;46155;52.364;6.580;2024-02-23T05:11:17;9.73;;;7.53;;
60306;SDS011;46155;52.364;6.580;2024-02-23T05:13:42;13.37;;;10.70;;
60306;SDS011;46155;52.364;6.580;2024-02-23T05:16:07;16.13;;;8.77;;
60306;SDS011;46155;52.364;6.580;2024-02-23T05:18:33;9.67;;;8.60;;
60306;SDS011;46155;52.364;6.580;2024-02-23T05:20:58;26.77;;;9.77;;
60306;SDS011;46155;52.364;6.580;2024-02-23T05:23:25;10.13;;;9.27;;
60306;SDS011;46155;52.364;6.580;2024-02-23T05:25:50;13.83;;;8.90;;
60306;SDS011;46155;52.364;6.580;2024-02-23T05:28:15;10.07;;;8.33;;
60306;SDS011;46155;52.364;6.580;2024-02-23T05:30:41;15.73;;;10.00;;
60306;SDS011;46155;52.364;6.580;2024-02-23T05:33:07;13.07;;;8.87;;
60306;SDS011;46155;52.364;6.580;2024-02-23T05:35:32;10.23;;;8.93;;
60306;SDS011;46155;52.364;6.580;2024-02-23T05:37:58;10.30;;;9.50;;
60306;SDS011;46155;52.364;6.580;2024-02-23T05:40:23;10.10;;;9.30;;
60306;SDS011;46155;52.364;6.580;2024-02-23T05:42:49;10.77;;;9.87;;
60306;SDS011;46155;52.364;6.580;2024-02-23T05:45:14;10.33;;;9.33;;
60306;SDS011;46155;52.364;6.580;2024-02-23T05:47:40;10.63;;;9.70;;
60306;SDS011;46155;52.364;6.580;2024-02-23T05:50:07;10.40;;;9.53;;
60306;SDS011;46155;52.364;6.580;2024-02-23T05:52:34;8.90;;;8.10;;
60306;SDS011;46155;52.364;6.580;2024-02-23T05:55:00;9.60;;;9.03;;
60306;SDS011;46155;52.364;6.580;2024-02-23T05:57:26;9.27;;;8.37;;
60306;SDS011;46155;52.364;6.580;2024-02-23T05:59:52;10.10;;;9.10;;
60306;SDS011;46155;52.364;6.580;2024-02-23T06:02:17;9.40;;;8.80;;
60306;SDS011;46155;52.364;6.580;2024-02-23T06:04:43;10.83;;;7.00;;
60306;SDS011;46155;52.364;6.580;2024-02-23T06:07:08;9.57;;;8.00;;
60306;SDS011;46155;52.364;6.580;2024-02-23T06:09:34;10.27;;;8.53;;
60306;SDS011;46155;52.364;6.580;2024-02-23T06:11:59;14.07;;;12.47;;
60306;SDS011;46155;52.364;6.580;2024-02-23T06:14:25;11.38;;;9.05;;
60306;SDS011;46155;52.364;6.580;2024-02-23T06:16:50;13.43;;;8.07;;
60306;SDS011;46155;52.364;6.580;2024-02-23T06:19:15;12.53;;;8.00;;
60306;SDS011;46155;52.364;6.580;2024-02-23T06:21:41;7.63;;;6.80;;
60306;SDS011;46155;52.364;6.580;2024-02-23T06:24:06;7.60;;;6.80;;
60306;SDS011;46155;52.364;6.580;2024-02-23T06:26:33;13.27;;;8.00;;
60306;SDS011;46155;52.364;6.580;2024-02-23T06:28:58;11.57;;;8.07;;
60306;SDS011;46155;52.364;6.580;2024-02-23T06:31:24;10.17;;;9.37;;
60306;SDS011;46155;52.364;6.580;2024-02-23T06:33:49;10.03;;;8.40;;
60306;SDS011;46155;52.364;6.580;2024-02-23T06:36:16;14.33;;;9.00;;
60306;SDS011;46155;52.364;6.580;2024-02-23T06:38:41;14.60;;;7.23;;
60306;SDS011;46155;52.364;6.580;2024-02-23T06:41:07;8.87;;;8.20;;
60306;SDS011;46155;52.364;6.580;2024-02-23T06:43:35;8.73;;;8.03;;
60306;SDS011;46155;52.364;6.580;2024-02-23T06:46:04;8.97;;;8.10;;
60306;SDS011;46155;52.364;6.580;2024-02-23T06:48:33;10.33;;;7.57;;
60306;SDS011;46155;52.364;6.580;2024-02-23T06:50:59;12.43;;;8.20;;
60306;SDS011;46155;52.364;6.580;2024-02-23T06:53:24;8.53;;;7.93;;
60306;SDS011;46155;52.364;6.580;2024-02-23T06:55:49;10.67;;;6.80;;
60306;SDS011;46155;52.364;6.580;2024-02-23T06:58:15;7.83;;;6.90;;
60306;SDS011;46155;52.364;6.580;2024-02-23T07:00:41;8.47;;;6.47;;
60306;SDS011;46155;52.364;6.580;2024-02-23T07:03:07;12.43;;;6.67;;
60306;SDS011;46155;52.364;6.580;2024-02-23T07:05:32;5.90;;;5.40;;
60306;SDS011;46155;52.364;6.580;2024-02-23T07:07:57;5.80;;;5.33;;
60306;SDS011;46155;52.364;6.580;2024-02-23T07:10:23;5.90;;;4.80;;
60306;SDS011;46155;52.364;6.580;2024-02-23T07:12:50;6.27;;;5.67;;
60306;SDS011;46155;52.364;6.580;2024-02-23T07:15:18;12.30;;;5.70;;
60306;SDS011;46155;52.364;6.580;2024-02-23T07:17:44;11.57;;;6.10;;
60306;SDS011;46155;52.364;6.580;2024-02-23T07:20:10;7.43;;;5.30;;
60306;SDS011;46155;52.364;6.580;2024-02-23T07:22:35;6.30;;;4.83;;
60306;SDS011;46155;52.364;6.580;2024-02-23T07:25:01;7.97;;;5.67;;
60306;SDS011;46155;52.364;6.580;2024-02-23T07:27:28;7.83;;;4.97;;
60306;SDS011;46155;52.364;6.580;2024-02-23T07:29:54;5.60;;;4.63;;
60306;SDS011;46155;52.364;6.580;2024-02-23T07:32:19;11.10;;;5.40;;
60306;SDS011;46155;52.364;6.580;2024-02-23T07:34:45;11.70;;;5.17;;
60306;SDS011;46155;52.364;6.580;2024-02-23T07:37:10;12.07;;;5.13;;
60306;SDS011;46155;52.364;6.580;2024-02-23T07:39:35;11.07;;;4.73;;
60306;SDS011;46155;52.364;6.580;2024-02-23T07:42:01;8.60;;;5.13;;
60306;SDS011;46155;52.364;6.580;2024-02-23T07:44:27;10.80;;;5.70;;
60306;SDS011;46155;52.364;6.580;2024-02-23T07:46:52;6.10;;;4.80;;
60306;SDS011;46155;52.364;6.580;2024-02-23T07:49:19;17.97;;;6.30;;
60306;SDS011;46155;52.364;6.580;2024-02-23T07:51:45;9.80;;;5.53;;
60306;SDS011;46155;52.364;6.580;2024-02-23T07:54:10;9.43;;;5.97;;
60306;SDS011;46155;52.364;6.580;2024-02-23T07:56:36;10.30;;;5.07;;
60306;SDS011;46155;52.364;6.580;2024-02-23T07:59:01;4.97;;;4.53;;
60306;SDS011;46155;52.364;6.580;2024-02-23T08:01:28;4.60;;;4.17;;
60306;SDS011;46155;52.364;6.580;2024-02-23T08:04:00;8.60;;;4.50;;
60306;SDS011;46155;52.364;6.580;2024-02-23T08:06:26;9.47;;;3.93;;
60306;SDS011;46155;52.364;6.580;2024-02-23T08:08:51;8.63;;;4.90;;
60306;SDS011;46155;52.364;6.580;2024-02-23T08:11:18;6.80;;;4.20;;
60306;SDS011;46155;52.364;6.580;2024-02-23T08:13:44;4.83;;;4.30;;
60306;SDS011;46155;52.364;6.580;2024-02-23T08:16:09;10.93;;;3.70;;
60306;SDS011;46155;52.364;6.580;2024-02-23T08:18:35;8.33;;;4.00;;
60306;SDS011;46155;52.364;6.580;2024-02-23T08:21:01;8.60;;;3.77;;
60306;SDS011;46155;52.364;6.580;2024-02-23T08:23:28;8.67;;;5.30;;
60306;SDS011;46155;52.364;6.580;2024-02-23T08:25:54;8.87;;;4.73;;
60306;SDS011;46155;52.364;6.580;2024-02-23T08:28:21;8.30;;;4.23;;
60306;SDS011;46155;52.364;6.580;2024-02-23T08:30:47;7.53;;;4.23;;
60306;SDS011;46155;52.364;6.580;2024-02-23T08:33:13;6.57;;;4.23;;
60306;SDS011;46155;52.364;6.580;2024-02-23T08:35:38;13.77;;;3.90;;
60306;SDS011;46155;52.364;6.580;2024-02-23T08:38:04;15.30;;;4.70;;
60306;SDS011;46155;52.364;6.580;2024-02-23T08:40:29;7.23;;;4.37;;
60306;SDS011;46155;52.364;6.580;2024-02-23T08:42:54;7.40;;;4.70;;
60306;SDS011;46155;52.364;6.580;2024-02-23T08:45:20;6.87;;;4.43;;
60306;SDS011;46155;52.364;6.580;2024-02-23T08:47:45;8.93;;;4.37;;
60306;SDS011;46155;52.364;6.580;2024-02-23T08:50:11;7.37;;;4.27;;
60306;SDS011;46155;52.364;6.580;2024-02-23T08:52:36;12.03;;;4.23;;
60306;SDS011;46155;52.364;6.580;2024-02-23T08:55:01;7.20;;;4.33;;
60306;SDS011;46155;52.364;6.580;2024-02-23T08:57:27;6.90;;;5.03;;
60306;SDS011;46155;52.364;6.580;2024-02-23T08:59:53;5.00;;;4.50;;
60306;SDS011;46155;52.364;6.580;2024-02-23T09:02:18;5.53;;;3.93;;
60306;SDS011;46155;52.364;6.580;2024-02-23T09:04:44;7.80;;;4.23;;
60306;SDS011;46155;52.364;6.580;2024-02-23T09:07:10;5.27;;;4.67;;
60306;SDS011;46155;52.364;6.580;2024-02-23T09:09:36;9.30;;;4.43;;
60306;SDS011;46155;52.364;6.580;2024-02-23T09:12:01;11.47;;;3.70;;
60306;SDS011;46155;52.364;6.580;2024-02-23T09:14:26;4.27;;;3.97;;
60306;SDS011;46155;52.364;6.580;2024-02-23T09:16:52;7.77;;;3.70;;
60306;SDS011;46155;52.364;6.580;2024-02-23T09:19:18;9.33;;;3.80;;
60306;SDS011;46155;52.364;6.580;2024-02-23T09:21:44;8.50;;;4.87;;
60306;SDS011;46155;52.364;6.580;2024-02-23T09:24:09;7.97;;;4.43;;
60306;SDS011;46155;52.364;6.580;2024-02-23T09:26:35;7.77;;;4.00;;
60306;SDS011;46155;52.364;6.580;2024-02-23T09:29:00;15.10;;;5.53;;
60306;SDS011;46155;52.364;6.580;2024-02-23T09:31:25;6.60;;;4.27;;
60306;SDS011;46155;52.364;6.580;2024-02-23T09:33:53;4.10;;;3.70;;
60306;SDS011;46155;52.364;6.580;2024-02-23T09:36:21;7.90;;;4.07;;
60306;SDS011;46155;52.364;6.580;2024-02-23T09:38:47;6.90;;;4.03;;
60306;SDS011;46155;52.364;6.580;2024-02-23T09:41:20;4.87;;;4.27;;
60306;SDS011;46155;52.364;6.580;2024-02-23T09:43:46;7.43;;;4.00;;
60306;SDS011;46155;52.364;6.580;2024-02-23T09:46:13;6.03;;;3.53;;
60306;SDS011;46155;52.364;6.580;2024-02-23T09:48:40;10.60;;;3.57;;
60306;SDS011;46155;52.364;6.580;2024-02-23T09:51:07;6.07;;;3.83;;
60306;SDS011;46155;52.364;6.580;2024-02-23T09:53:35;7.13;;;3.87;;
60306;SDS011;46155;52.364;6.580;2024-02-23T09:56:02;9.10;;;4.10;;
60306;SDS011;46155;52.364;6.580;2024-02-23T09:58:29;6.17;;;3.60;;
60306;SDS011;46155;52.364;6.580;2024-02-23T10:00:59;11.53;;;3.90;;
60306;SDS011;46155;52.364;6.580;2024-02-23T10:03:27;6.40;;;3.60;;
60306;SDS011;46155;52.364;6.580;2024-02-23T10:05:55;6.70;;;4.13;;
60306;SDS011;46155;52.364;6.580;2024-02-23T10:08:20;4.20;;;3.80;;
60306;SDS011;46155;52.364;6.580;2024-02-23T10:10:46;14.13;;;4.50;;
60306;SDS011;46155;52.364;6.580;2024-02-23T10:13:12;8.83;;;3.77;;
60306;SDS011;46155;52.364;6.580;2024-02-23T10:15:37;9.70;;;3.83;;
60306;SDS011;46155;52.364;6.580;2024-02-23T10:18:03;5.23;;;4.73;;
60306;SDS011;46155;52.364;6.580;2024-02-23T10:20:29;10.63;;;4.10;;
60306;SDS011;46155;52.364;6.580;2024-02-23T10:22:54;6.87;;;3.57;;
60306;SDS011;46155;52.364;6.580;2024-02-23T10:25:20;5.67;;;3.87;;
60306;SDS011;46155;52.364;6.580;2024-02-23T10:27:45;3.50;;;3.20;;
60306;SDS011;46155;52.364;6.580;2024-02-23T10:30:13;4.83;;;3.90;;
60306;SDS011;46155;52.364;6.580;2024-02-23T10:32:40;12.00;;;4.60;;
60306;SDS011;46155;52.364;6.580;2024-02-23T10:35:07;4.83;;;3.83;;
60306;SDS011;46155;52.364;6.580;2024-02-23T10:37:35;4.50;;;4.20;;
60306;SDS011;46155;52.364;6.580;2024-02-23T10:40:01;9.30;;;4.23;;
60306;SDS011;46155;52.364;6.580;2024-02-23T10:42:30;6.47;;;3.50;;
60306;SDS011;46155;52.364;6.580;2024-02-23T10:44:59;4.27;;;3.73;;
60306;SDS011;46155;52.364;6.580;2024-02-23T10:47:26;9.17;;;4.77;;
60306;SDS011;46155;52.364;6.580;2024-02-23T10:49:51;5.33;;;3.93;;
60306;SDS011;46155;52.364;6.580;2024-02-23T10:52:18;6.40;;;4.37;;
60306;SDS011;46155;52.364;6.580;2024-02-23T10:54:46;7.67;;;4.27;;
60306;SDS011;46155;52.364;6.580;2024-02-23T10:57:11;4.83;;;3.90;;
60306;SDS011;46155;52.364;6.580;2024-02-23T10:59:38;5.07;;;3.80;;
60306;SDS011;46155;52.364;6.580;2024-02-23T11:02:04;6.00;;;5.40;;
60306;SDS011;46155;52.364;6.580;2024-02-23T11:04:31;6.37;;;4.23;;
60306;SDS011;46155;52.364;6.580;2024-02-23T11:06:57;4.37;;;3.97;;
60306;SDS011;46155;52.364;6.580;2024-02-23T11:09:23;5.00;;;3.90;;
60306;SDS011;46155;52.364;6.580;2024-02-23T11:11:56;8.33;;;4.03;;
60306;SDS011;46155;52.364;6.580;2024-02-23T11:14:32;5.77;;;5.03;;
60306;SDS011;46155;52.364;6.580;2024-02-23T11:16:59;10.67;;;5.30;;
60306;SDS011;46155;52.364;6.580;2024-02-23T11:19:35;6.83;;;4.67;;
60306;SDS011;46155;52.364;6.580;2024-02-23T11:22:02;8.93;;;4.97;;
60306;SDS011;46155;52.364;6.580;2024-02-23T11:24:28;4.80;;;4.50;;
60306;SDS011;46155;52.364;6.580;2024-02-23T11:26:58;7.53;;;5.00;;
60306;SDS011;46155;52.364;6.580;2024-02-23T11:29:26;7.87;;;5.60;;
60306;SDS011;46155;52.364;6.580;2024-02-23T11:31:57;8.53;;;5.40;;
60306;SDS011;46155;52.364;6.580;2024-02-23T11:34:26;9.23;;;5.57;;
60306;SDS011;46155;52.364;6.580;2024-02-23T11:36:52;5.90;;;5.40;;
60306;SDS011;46155;52.364;6.580;2024-02-23T11:39:19;7.57;;;5.60;;
60306;SDS011;46155;52.364;6.580;2024-02-23T11:41:45;7.37;;;6.60;;
60306;SDS011;46155;52.364;6.580;2024-02-23T11:44:14;12.23;;;6.67;;
60306;SDS011;46155;52.364;6.580;2024-02-23T11:46:46;8.33;;;7.23;;
60306;SDS011;46155;52.364;6.580;2024-02-23T11:49:12;10.73;;;6.90;;
60306;SDS011;46155;52.364;6.580;2024-02-23T11:51:37;7.80;;;7.03;;
60306;SDS011;46155;52.364;6.580;2024-02-23T11:54:03;8.17;;;7.47;;
60306;SDS011;46155;52.364;6.580;2024-02-23T11:56:28;9.47;;;7.23;;
60306;SDS011;46155;52.364;6.580;2024-02-23T11:58:54;8.10;;;6.40;;
60306;SDS011;46155;52.364;6.580;2024-02-23T12:01:20;8.93;;;6.63;;
60306;SDS011;46155;52.364;6.580;2024-02-23T12:03:45;8.93;;;6.10;;
60306;SDS011;46155;52.364;6.580;2024-02-23T12:06:11;9.10;;;6.30;;
60306;SDS011;46155;52.364;6.580;2024-02-23T12:08:36;7.10;;;6.47;;
60306;SDS011;46155;52.364;6.580;2024-02-23T12:11:06;6.40;;;5.87;;
60306;SDS011;46155;52.364;6.580;2024-02-23T12:13:33;6.53;;;5.87;;
60306;SDS011;46155;52.364;6.580;2024-02-23T12:15:59;5.87;;;5.40;;
60306;SDS011;46155;52.364;6.580;2024-02-23T12:18:25;7.03;;;5.60;;
60306;SDS011;46155;52.364;6.580;2024-02-23T12:21:00;4.80;;;4.50;;
60306;SDS011;46155;52.364;6.580;2024-02-23T12:23:44;4.77;;;4.47;;
60306;SDS011;46155;52.364;6.580;2024-02-23T12:26:10;6.17;;;4.90;;
60306;SDS011;46155;52.364;6.580;2024-02-23T12:28:38;4.87;;;4.40;;
60306;SDS011;46155;52.364;6.580;2024-02-23T12:31:04;4.70;;;4.33;;
60306;SDS011;46155;52.364;6.580;2024-02-23T12:33:36;6.53;;;4.67;;
60306;SDS011;46155;52.364;6.580;2024-02-23T12:36:04;4.50;;;4.10;;
60306;SDS011;46155;52.364;6.580;2024-02-23T12:38:30;5.30;;;4.97;;
60306;SDS011;46155;52.364;6.580;2024-02-23T12:40:56;8.37;;;4.90;;
60306;SDS011;46155;52.364;6.580;2024-02-23T12:43:22;6.03;;;5.40;;
60306;SDS011;46155;52.364;6.580;2024-02-23T12:45:49;5.40;;;4.90;;
60306;SDS011;46155;52.364;6.580;2024-02-23T12:48:16;6.63;;;4.40;;
60306;SDS011;46155;52.364;6.580;2024-02-23T12:50:42;5.07;;;4.77;;
60306;SDS011;46155;52.364;6.580;2024-02-23T12:56:02;4.80;;;4.47;;
60306;SDS011;46155;52.364;6.580;2024-02-23T12:58:27;4.30;;;4.10;;
60306;SDS011;46155;52.364;6.580;2024-02-23T13:00:53;4.47;;;4.00;;
60306;SDS011;46155;52.364;6.580;2024-02-23T13:03:18;3.80;;;3.50;;
60306;SDS011;46155;52.364;6.580;2024-02-23T13:05:43;4.10;;;3.70;;
60306;SDS011;46155;52.364;6.580;2024-02-23T13:08:09;5.00;;;3.63;;
60306;SDS011;46155;52.364;6.580;2024-02-23T13:10:34;8.70;;;4.83;;
60306;SDS011;46155;52.364;6.580;2024-02-23T13:13:00;5.97;;;4.43;;
60306;SDS011;46155;52.364;6.580;2024-02-23T13:15:25;4.73;;;4.43;;
60306;SDS011;46155;52.364;6.580;2024-02-23T13:17:50;5.70;;;4.53;;
60306;SDS011;46155;52.364;6.580;2024-02-23T13:20:16;8.90;;;5.20;;
60306;SDS011;46155;52.364;6.580;2024-02-23T13:22:41;4.87;;;3.97;;
60306;SDS011;46155;52.364;6.580;2024-02-23T13:25:06;4.27;;;3.93;;
60306;SDS011;46155;52.364;6.580;2024-02-23T13:27:32;6.00;;;4.37;;
60306;SDS011;46155;52.364;6.580;2024-02-23T13:29:57;8.50;;;4.13;;
60306;SDS011;46155;52.364;6.580;2024-02-23T13:32:22;4.10;;;3.83;;
60306;SDS011;46155;52.364;6.580;2024-02-23T13:34:48;8.33;;;4.70;;
60306;SDS011;46155;52.364;6.580;2024-02-23T13:37:17;4.90;;;4.50;;
60306;SDS011;46155;52.364;6.580;2024-02-23T13:39:42;8.07;;;4.87;;
60306;SDS011;46155;52.364;6.580;2024-02-23T13:42:07;4.93;;;4.60;;
60306;SDS011;46155;52.364;6.580;2024-02-23T13:44:34;7.90;;;4.90;;
60306;SDS011;46155;52.364;6.580;2024-02-23T13:47:00;8.80;;;4.70;;
60306;SDS011;46155;52.364;6.580;2024-02-23T13:49:25;4.80;;;4.40;;
60306;SDS011;46155;52.364;6.580;2024-02-23T13:51:51;6.70;;;4.20;;
60306;SDS011;46155;52.364;6.580;2024-02-23T13:54:16;5.03;;;4.60;;
60306;SDS011;46155;52.364;6.580;2024-02-23T13:56:41;4.30;;;4.00;;
60306;SDS011;46155;52.364;6.580;2024-02-23T13:59:06;4.33;;;4.13;;
60306;SDS011;46155;52.364;6.580;2024-02-23T14:01:32;5.63;;;4.10;;
60306;SDS011;46155;52.364;6.580;2024-02-23T14:03:57;5.90;;;4.17;;
60306;SDS011;46155;52.364;6.580;2024-02-23T14:06:22;5.63;;;4.20;;
60306;SDS011;46155;52.364;6.580;2024-02-23T14:08:49;7.53;;;4.53;;
60306;SDS011;46155;52.364;6.580;2024-02-23T14:11:14;5.30;;;4.80;;
60306;SDS011;46155;52.364;6.580;2024-02-23T14:13:40;5.43;;;4.90;;
60306;SDS011;46155;52.364;6.580;2024-02-23T14:16:05;7.63;;;4.20;;
60306;SDS011;46155;52.364;6.580;2024-02-23T14:18:31;8.63;;;4.70;;
60306;SDS011;46155;52.364;6.580;2024-02-23T14:21:01;5.93;;;4.73;;
60306;SDS011;46155;52.364;6.580;2024-02-23T14:23:27;4.10;;;3.70;;
60306;SDS011;46155;52.364;6.580;2024-02-23T14:25:52;5.90;;;4.73;;
60306;SDS011;46155;52.364;6.580;2024-02-23T14:28:18;9.73;;;4.73;;
60306;SDS011;46155;52.364;6.580;2024-02-23T14:30:43;6.13;;;4.70;;
60306;SDS011;46155;52.364;6.580;2024-02-23T14:33:08;5.33;;;4.73;;
60306;SDS011;46155;52.364;6.580;2024-02-23T14:35:33;6.07;;;5.00;;
60306;SDS011;46155;52.364;6.580;2024-02-23T14:37:59;4.73;;;4.10;;
60306;SDS011;46155;52.364;6.580;2024-02-23T14:40:24;8.93;;;4.30;;
60306;SDS011;46155;52.364;6.580;2024-02-23T14:42:49;4.77;;;4.33;;
60306;SDS011;46155;52.364;6.580;2024-02-23T14:45:15;6.73;;;4.70;;
60306;SDS011;46155;52.364;6.580;2024-02-23T14:47:41;5.30;;;4.43;;
60306;SDS011;46155;52.364;6.580;2024-02-23T14:50:09;6.13;;;4.33;;
60306;SDS011;46155;52.364;6.580;2024-02-23T14:52:35;8.00;;;4.67;;
60306;SDS011;46155;52.364;6.580;2024-02-23T14:55:00;4.97;;;4.40;;
60306;SDS011;46155;52.364;6.580;2024-02-23T14:57:26;4.77;;;4.17;;
60306;SDS011;46155;52.364;6.580;2024-02-23T14:59:51;6.13;;;4.60;;
60306;SDS011;46155;52.364;6.580;2024-02-23T15:02:21;4.70;;;4.40;;
60306;SDS011;46155;52.364;6.580;2024-02-23T15:04:47;6.70;;;4.60;;
60306;SDS011;46155;52.364;6.580;2024-02-23T15:07:15;4.80;;;4.40;;
60306;SDS011;46155;52.364;6.580;2024-02-23T15:09:40;9.77;;;4.30;;
60306;SDS011;46155;52.364;6.580;2024-02-23T15:12:05;5.13;;;4.73;;
60306;SDS011;46155;52.364;6.580;2024-02-23T15:14:31;5.40;;;5.00;;
60306;SDS011;46155;52.364;6.580;2024-02-23T15:16:56;4.83;;;4.40;;
60306;SDS011;46155;52.364;6.580;2024-02-23T15:19:22;5.77;;;4.50;;
60306;SDS011;46155;52.364;6.580;2024-02-23T15:21:52;6.13;;;5.03;;
60306;SDS011;46155;52.364;6.580;2024-02-23T15:24:18;12.30;;;4.40;;
60306;SDS011;46155;52.364;6.580;2024-02-23T15:26:44;14.47;;;6.00;;
60306;SDS011;46155;52.364;6.580;2024-02-23T15:29:10;7.37;;;4.27;;
60306;SDS011;46155;52.364;6.580;2024-02-23T15:31:35;5.43;;;4.83;;
60306;SDS011;46155;52.364;6.580;2024-02-23T15:34:01;6.93;;;4.57;;
60306;SDS011;46155;52.364;6.580;2024-02-23T15:36:27;4.40;;;4.10;;
60306;SDS011;46155;52.364;6.580;2024-02-23T15:38:52;12.97;;;5.17;;
60306;SDS011;46155;52.364;6.580;2024-02-23T15:41:23;7.53;;;4.97;;
60306;SDS011;46155;52.364;6.580;2024-02-23T15:43:48;8.33;;;5.10;;
60306;SDS011;46155;52.364;6.580;2024-02-23T15:46:14;5.20;;;4.80;;
60306;SDS011;46155;52.364;6.580;2024-02-23T15:48:39;5.00;;;4.50;;
60306;SDS011;46155;52.364;6.580;2024-02-23T15:51:04;11.90;;;4.90;;
60306;SDS011;46155;52.364;6.580;2024-02-23T15:53:30;5.40;;;4.30;;
60306;SDS011;46155;52.364;6.580;2024-02-23T15:55:55;4.63;;;4.33;;
60306;SDS011;46155;52.364;6.580;2024-02-23T15:58:20;4.67;;;4.27;;
60306;SDS011;46155;52.364;6.580;2024-02-23T16:00:46;3.93;;;3.73;;
60306;SDS011;46155;52.364;6.580;2024-02-23T16:03:11;8.70;;;3.90;;
60306;SDS011;46155;52.364;6.580;2024-02-23T16:05:37;5.07;;;4.60;;
60306;SDS011;46155;52.364;6.580;2024-02-23T16:08:02;4.40;;;4.13;;
60306;SDS011;46155;52.364;6.580;2024-02-23T16:10:29;5.93;;;4.37;;
60306;SDS011;46155;52.364;6.580;2024-02-23T16:12:55;4.67;;;4.20;;
60306;SDS011;46155;52.364;6.580;2024-02-23T16:15:23;7.10;;;4.30;;
60306;SDS011;46155;52.364;6.580;2024-02-23T16:17:48;5.57;;;5.07;;
60306;SDS011;46155;52.364;6.580;2024-02-23T16:20:14;5.13;;;4.63;;
60306;SDS011;46155;52.364;6.580;2024-02-23T16:22:41;4.80;;;4.40;;
60306;SDS011;46155;52.364;6.580;2024-02-23T16:25:08;5.27;;;4.87;;
60306;SDS011;46155;52.364;6.580;2024-02-23T16:27:35;5.37;;;4.87;;
60306;SDS011;46155;52.364;6.580;2024-02-23T16:30:00;4.57;;;4.27;;
60306;SDS011;46155;52.364;6.580;2024-02-23T16:32:25;11.40;;;5.53;;
60306;SDS011;46155;52.364;6.580;2024-02-23T16:34:50;7.97;;;4.43;;
60306;SDS011;46155;52.364;6.580;2024-02-23T16:37:16;6.77;;;5.03;;
60306;SDS011;46155;52.364;6.580;2024-02-23T16:39:41;5.93;;;5.43;;
60306;SDS011;46155;52.364;6.580;2024-02-23T16:42:06;6.33;;;5.93;;
60306;SDS011;46155;52.364;6.580;2024-02-23T16:44:32;8.23;;;6.07;;
60306;SDS011;46155;52.364;6.580;2024-02-23T16:46:57;6.53;;;6.07;;
60306;SDS011;46155;52.364;6.580;2024-02-23T16:49:23;8.83;;;6.00;;
60306;SDS011;46155;52.364;6.580;2024-02-23T16:51:48;6.67;;;5.87;;
60306;SDS011;46155;52.364;6.580;2024-02-23T16:54:13;7.70;;;5.77;;
60306;SDS011;46155;52.364;6.580;2024-02-23T16:56:41;8.00;;;7.30;;
60306;SDS011;46155;52.364;6.580;2024-02-23T16:59:07;9.00;;;6.60;;
60306;SDS011;46155;52.364;6.580;2024-02-23T17:01:32;7.20;;;6.67;;
60306;SDS011;46155;52.364;6.580;2024-02-23T17:03:57;6.90;;;6.27;;
60306;SDS011;46155;52.364;6.580;2024-02-23T17:06:22;8.23;;;6.73;;
60306;SDS011;46155;52.364;6.580;2024-02-23T17:08:48;13.73;;;7.60;;
60306;SDS011;46155;52.364;6.580;2024-02-23T17:11:13;11.20;;;7.87;;
60306;SDS011;46155;52.364;6.580;2024-02-23T17:13:38;7.83;;;7.13;;
60306;SDS011;46155;52.364;6.580;2024-02-23T17:16:04;11.73;;;7.00;;
60306;SDS011;46155;52.364;6.580;2024-02-23T17:18:29;8.93;;;8.03;;
60306;SDS011;46155;52.364;6.580;2024-02-23T17:20:54;10.17;;;7.20;;
60306;SDS011;46155;52.364;6.580;2024-02-23T17:23:20;7.97;;;7.27;;
60306;SDS011;46155;52.364;6.580;2024-02-23T17:25:46;14.73;;;10.53;;
60306;SDS011;46155;52.364;6.580;2024-02-23T17:28:11;11.43;;;10.00;;
60306;SDS011;46155;52.364;6.580;2024-02-23T17:30:40;12.03;;;10.83;;
60306;SDS011;46155;52.364;6.580;2024-02-23T17:33:05;9.73;;;8.47;;
60306;SDS011;46155;52.364;6.580;2024-02-23T17:35:31;10.10;;;6.37;;
60306;SDS011;46155;52.364;6.580;2024-02-23T17:37:56;9.57;;;6.80;;
60306;SDS011;46155;52.364;6.580;2024-02-23T17:40:21;7.10;;;6.60;;
60306;SDS011;46155;52.364;6.580;2024-02-23T17:42:47;7.83;;;6.37;;
60306;SDS011;46155;52.364;6.580;2024-02-23T17:45:12;10.53;;;9.70;;
60306;SDS011;46155;52.364;6.580;2024-02-23T17:47:38;11.13;;;9.03;;
60306;SDS011;46155;52.364;6.580;2024-02-23T17:50:03;11.07;;;8.57;;
60306;SDS011;46155;52.364;6.580;2024-02-23T17:52:29;7.60;;;7.10;;
60306;SDS011;46155;52.364;6.580;2024-02-23T17:54:55;7.63;;;6.23;;
60306;SDS011;46155;52.364;6.580;2024-02-23T17:57:21;10.70;;;6.40;;
60306;SDS011;46155;52.364;6.580;2024-02-23T17:59:46;5.83;;;5.43;;
60306;SDS011;46155;52.364;6.580;2024-02-23T18:02:12;7.23;;;6.63;;
60306;SDS011;46155;52.364;6.580;2024-02-23T18:04:39;7.17;;;6.63;;
60306;SDS011;46155;52.364;6.580;2024-02-23T18:07:04;7.53;;;6.83;;
60306;SDS011;46155;52.364;6.580;2024-02-23T18:09:29;10.23;;;8.87;;
60306;SDS011;46155;52.364;6.580;2024-02-23T18:11:55;9.33;;;8.43;;
60306;SDS011;46155;52.364;6.580;2024-02-23T18:14:20;9.07;;;6.93;;
60306;SDS011;46155;52.364;6.580;2024-02-23T18:16:46;11.70;;;7.60;;
60306;SDS011;46155;52.364;6.580;2024-02-23T18:19:11;7.43;;;6.73;;
60306;SDS011;46155;52.364;6.580;2024-02-23T18:21:37;17.73;;;7.67;;
60306;SDS011;46155;52.364;6.580;2024-02-23T18:24:03;12.87;;;7.53;;
60306;SDS011;46155;52.364;6.580;2024-02-23T18:26:29;9.23;;;8.27;;
60306;SDS011;46155;52.364;6.580;2024-02-23T18:28:54;16.23;;;8.13;;
60306;SDS011;46155;52.364;6.580;2024-02-23T18:31:20;12.97;;;7.43;;
60306;SDS011;46155;52.364;6.580;2024-02-23T18:33:45;7.43;;;5.57;;
60306;SDS011;46155;52.364;6.580;2024-02-23T18:36:11;17.53;;;8.60;;
60306;SDS011;46155;52.364;6.580;2024-02-23T18:38:42;7.70;;;5.93;;
60306;SDS011;46155;52.364;6.580;2024-02-23T18:41:09;10.53;;;5.37;;
60306;SDS011;46155;52.364;6.580;2024-02-23T18:43:34;6.57;;;5.97;;